sensor_id;sensor_type;location;lat;lon;timestamp;P1;durP1;ratioP1;P2;durP2;ratioP2
81176;SDS011;74095;48.270;14.200;2024-01-10T00:02:17;11.38;;;6.32;;
81176;SDS011;74095;48.270;14.200;2024-01-10T00:04:43;16.60;;;7.95;;
81176;SDS011;74095;48.270;14.200;2024-01-10T00:07:09;13.38;;;6.47;;
81176;SDS011;74095;48.270;14.200;2024-01-10T00:09:35;16.45;;;7.70;;
81176;SDS011;74095;48.270;14.200;2024-01-10T00:12:01;18.95;;;10.50;;
81176;SDS011;74095;48.270;14.200;2024-01-10T00:14:27;21.15;;;8.75;;
81176;SDS011;74095;48.270;14.200;2024-01-10T00:16:53;13.02;;;6.72;;
81176;SDS011;74095;48.270;14.200;2024-01-10T00:19:19;14.38;;;7.03;;
81176;SDS011;74095;48.270;14.200;2024-01-10T00:21:45;12.98;;;7.80;;
81176;SDS011;74095;48.270;14.200;2024-01-10T00:24:11;15.98;;;6.28;;
81176;SDS011;74095;48.270;14.200;2024-01-10T00:26:36;15.25;;;6.68;;
81176;SDS011;74095;48.270;14.200;2024-01-10T00:29:02;13.18;;;7.32;;
81176;SDS011;74095;48.270;14.200;2024-01-10T00:31:28;14.10;;;6.60;;
81176;SDS011;74095;48.270;14.200;2024-01-10T00:33:54;16.48;;;8.85;;
81176;SDS011;74095;48.270;14.200;2024-01-10T00:36:20;12.13;;;6.30;;
81176;SDS011;74095;48.270;14.200;2024-01-10T00:38:46;13.60;;;6.38;;
81176;SDS011;74095;48.270;14.200;2024-01-10T00:41:12;17.88;;;9.63;;
81176;SDS011;74095;48.270;14.200;2024-01-10T00:43:38;13.45;;;6.57;;
81176;SDS011;74095;48.270;14.200;2024-01-10T00:46:04;14.55;;;6.80;;
81176;SDS011;74095;48.270;14.200;2024-01-10T00:48:30;21.73;;;11.38;;
81176;SDS011;74095;48.270;14.200;2024-01-10T00:50:56;13.90;;;7.18;;
81176;SDS011;74095;48.270;14.200;2024-01-10T00:53:22;14.15;;;6.10;;
81176;SDS011;74095;48.270;14.200;2024-01-10T00:55:48;15.52;;;6.55;;
81176;SDS011;74095;48.270;14.200;2024-01-10T00:58:13;25.58;;;7.00;;
81176;SDS011;74095;48.270;14.200;2024-01-10T01:00:39;17.10;;;7.88;;
81176;SDS011;74095;48.270;14.200;2024-01-10T01:03:06;14.10;;;7.47;;
81176;SDS011;74095;48.270;14.200;2024-01-10T01:05:32;18.08;;;9.35;;
81176;SDS011;74095;48.270;14.200;2024-01-10T01:07:58;18.30;;;9.32;;
81176;SDS011;74095;48.270;14.200;2024-01-10T01:10:23;17.23;;;7.78;;
81176;SDS011;74095;48.270;14.200;2024-01-10T01:12:49;19.38;;;10.98;;
81176;SDS011;74095;48.270;14.200;2024-01-10T01:15:15;17.83;;;7.85;;
81176;SDS011;74095;48.270;14.200;2024-01-10T01:17:41;15.18;;;7.90;;
81176;SDS011;74095;48.270;14.200;2024-01-10T01:20:07;19.85;;;10.73;;
81176;SDS011;74095;48.270;14.200;2024-01-10T01:22:34;16.42;;;7.47;;
81176;SDS011;74095;48.270;14.200;2024-01-10T01:25:00;16.10;;;7.05;;
81176;SDS011;74095;48.270;14.200;2024-01-10T01:27:26;17.45;;;7.60;;
81176;SDS011;74095;48.270;14.200;2024-01-10T01:29:52;15.35;;;6.95;;
81176;SDS011;74095;48.270;14.200;2024-01-10T01:32:17;14.55;;;6.55;;
81176;SDS011;74095;48.270;14.200;2024-01-10T01:34:43;17.20;;;7.60;;
81176;SDS011;74095;48.270;14.200;2024-01-10T01:37:09;13.52;;;5.82;;
81176;SDS011;74095;48.270;14.200;2024-01-10T01:39:35;20.45;;;9.05;;
81176;SDS011;74095;48.270;14.200;2024-01-10T01:42:01;14.73;;;6.97;;
81176;SDS011;74095;48.270;14.200;2024-01-10T01:44:27;16.92;;;8.57;;
81176;SDS011;74095;48.270;14.200;2024-01-10T01:46:53;17.60;;;9.32;;
81176;SDS011;74095;48.270;14.200;2024-01-10T01:49:19;22.52;;;12.07;;
81176;SDS011;74095;48.270;14.200;2024-01-10T01:51:45;20.65;;;9.88;;
81176;SDS011;74095;48.270;14.200;2024-01-10T01:54:12;19.40;;;8.82;;
81176;SDS011;74095;48.270;14.200;2024-01-10T01:56:38;15.73;;;6.82;;
81176;SDS011;74095;48.270;14.200;2024-01-10T01:59:05;18.75;;;9.52;;
81176;SDS011;74095;48.270;14.200;2024-01-10T02:01:31;19.85;;;9.30;;
81176;SDS011;74095;48.270;14.200;2024-01-10T02:03:58;17.88;;;9.40;;
81176;SDS011;74095;48.270;14.200;2024-01-10T02:06:26;20.65;;;8.32;;
81176;SDS011;74095;48.270;14.200;2024-01-10T02:08:52;17.52;;;9.32;;
81176;SDS011;74095;48.270;14.200;2024-01-10T02:11:18;20.63;;;10.18;;
81176;SDS011;74095;48.270;14.200;2024-01-10T02:13:44;17.30;;;7.95;;
81176;SDS011;74095;48.270;14.200;2024-01-10T02:16:10;20.27;;;8.80;;
81176;SDS011;74095;48.270;14.200;2024-01-10T02:18:37;20.02;;;10.63;;
81176;SDS011;74095;48.270;14.200;2024-01-10T02:21:03;21.70;;;11.45;;
81176;SDS011;74095;48.270;14.200;2024-01-10T02:23:29;18.50;;;8.40;;
81176;SDS011;74095;48.270;14.200;2024-01-10T02:25:55;20.27;;;9.40;;
81176;SDS011;74095;48.270;14.200;2024-01-10T02:28:21;17.50;;;7.72;;
81176;SDS011;74095;48.270;14.200;2024-01-10T02:30:52;15.07;;;6.75;;
81176;SDS011;74095;48.270;14.200;2024-01-10T02:33:19;18.23;;;6.97;;
81176;SDS011;74095;48.270;14.200;2024-01-10T02:35:45;15.10;;;7.45;;
81176;SDS011;74095;48.270;14.200;2024-01-10T02:38:11;16.00;;;7.22;;
81176;SDS011;74095;48.270;14.200;2024-01-10T02:40:37;17.45;;;8.27;;
81176;SDS011;74095;48.270;14.200;2024-01-10T02:43:03;13.82;;;6.32;;
81176;SDS011;74095;48.270;14.200;2024-01-10T02:45:29;15.27;;;7.25;;
81176;SDS011;74095;48.270;14.200;2024-01-10T02:47:55;14.15;;;6.95;;
81176;SDS011;74095;48.270;14.200;2024-01-10T02:50:21;17.75;;;8.18;;
81176;SDS011;74095;48.270;14.200;2024-01-10T02:52:47;19.92;;;8.00;;
81176;SDS011;74095;48.270;14.200;2024-01-10T02:55:13;13.63;;;6.43;;
81176;SDS011;74095;48.270;14.200;2024-01-10T02:57:39;18.50;;;9.05;;
81176;SDS011;74095;48.270;14.200;2024-01-10T03:00:05;18.77;;;8.63;;
81176;SDS011;74095;48.270;14.200;2024-01-10T03:02:32;19.00;;;8.20;;
81176;SDS011;74095;48.270;14.200;2024-01-10T03:04:58;15.57;;;7.55;;
81176;SDS011;74095;48.270;14.200;2024-01-10T03:07:23;16.58;;;7.32;;
81176;SDS011;74095;48.270;14.200;2024-01-10T03:09:52;13.88;;;6.50;;
81176;SDS011;74095;48.270;14.200;2024-01-10T03:12:18;16.40;;;8.63;;
81176;SDS011;74095;48.270;14.200;2024-01-10T03:14:44;20.02;;;9.60;;
81176;SDS011;74095;48.270;14.200;2024-01-10T03:17:11;20.63;;;9.43;;
81176;SDS011;74095;48.270;14.200;2024-01-10T03:19:36;17.77;;;8.52;;
81176;SDS011;74095;48.270;14.200;2024-01-10T03:22:08;21.15;;;7.43;;
81176;SDS011;74095;48.270;14.200;2024-01-10T03:24:34;17.85;;;8.45;;
81176;SDS011;74095;48.270;14.200;2024-01-10T03:27:00;24.30;;;12.93;;
81176;SDS011;74095;48.270;14.200;2024-01-10T03:29:26;20.67;;;9.60;;
81176;SDS011;74095;48.270;14.200;2024-01-10T03:31:52;19.90;;;9.30;;
81176;SDS011;74095;48.270;14.200;2024-01-10T03:34:18;17.95;;;9.15;;
81176;SDS011;74095;48.270;14.200;2024-01-10T03:36:44;24.60;;;12.55;;
81176;SDS011;74095;48.270;14.200;2024-01-10T03:39:10;22.83;;;12.45;;
81176;SDS011;74095;48.270;14.200;2024-01-10T03:41:36;24.17;;;9.60;;
81176;SDS011;74095;48.270;14.200;2024-01-10T03:44:02;19.23;;;8.82;;
81176;SDS011;74095;48.270;14.200;2024-01-10T03:46:28;22.40;;;9.57;;
81176;SDS011;74095;48.270;14.200;2024-01-10T03:48:54;26.90;;;13.23;;
81176;SDS011;74095;48.270;14.200;2024-01-10T03:51:20;25.55;;;11.52;;
81176;SDS011;74095;48.270;14.200;2024-01-10T03:53:46;21.73;;;9.65;;
81176;SDS011;74095;48.270;14.200;2024-01-10T03:56:14;26.75;;;13.52;;
81176;SDS011;74095;48.270;14.200;2024-01-10T03:58:41;22.60;;;11.63;;
81176;SDS011;74095;48.270;14.200;2024-01-10T04:01:07;28.52;;;12.50;;
81176;SDS011;74095;48.270;14.200;2024-01-10T04:03:34;21.85;;;10.95;;
81176;SDS011;74095;48.270;14.200;2024-01-10T04:06:01;22.58;;;9.95;;
81176;SDS011;74095;48.270;14.200;2024-01-10T04:08:28;29.15;;;15.30;;
81176;SDS011;74095;48.270;14.200;2024-01-10T04:10:54;23.77;;;9.95;;
81176;SDS011;74095;48.270;14.200;2024-01-10T04:13:20;22.33;;;9.52;;
81176;SDS011;74095;48.270;14.200;2024-01-10T04:15:46;23.00;;;11.25;;
81176;SDS011;74095;48.270;14.200;2024-01-10T04:18:12;25.27;;;12.82;;
81176;SDS011;74095;48.270;14.200;2024-01-10T04:20:38;23.27;;;9.90;;
81176;SDS011;74095;48.270;14.200;2024-01-10T04:23:04;24.35;;;12.13;;
81176;SDS011;74095;48.270;14.200;2024-01-10T04:25:30;23.88;;;11.98;;
81176;SDS011;74095;48.270;14.200;2024-01-10T04:27:56;19.90;;;10.00;;
81176;SDS011;74095;48.270;14.200;2024-01-10T04:30:23;25.75;;;11.93;;
81176;SDS011;74095;48.270;14.200;2024-01-10T04:32:48;23.98;;;10.95;;
81176;SDS011;74095;48.270;14.200;2024-01-10T04:35:14;28.33;;;12.80;;
81176;SDS011;74095;48.270;14.200;2024-01-10T04:37:40;24.15;;;13.43;;
81176;SDS011;74095;48.270;14.200;2024-01-10T04:40:06;24.88;;;13.57;;
81176;SDS011;74095;48.270;14.200;2024-01-10T04:42:33;25.63;;;12.07;;
81176;SDS011;74095;48.270;14.200;2024-01-10T04:44:59;28.48;;;15.25;;
81176;SDS011;74095;48.270;14.200;2024-01-10T04:47:25;22.77;;;12.57;;
81176;SDS011;74095;48.270;14.200;2024-01-10T04:49:50;26.25;;;13.02;;
81176;SDS011;74095;48.270;14.200;2024-01-10T04:52:16;21.80;;;10.82;;
81176;SDS011;74095;48.270;14.200;2024-01-10T04:54:42;28.25;;;14.30;;
81176;SDS011;74095;48.270;14.200;2024-01-10T04:57:08;23.13;;;10.85;;
81176;SDS011;74095;48.270;14.200;2024-01-10T04:59:34;20.45;;;10.35;;
81176;SDS011;74095;48.270;14.200;2024-01-10T05:02:00;27.42;;;13.32;;
81176;SDS011;74095;48.270;14.200;2024-01-10T05:04:26;31.33;;;17.63;;
81176;SDS011;74095;48.270;14.200;2024-01-10T05:06:52;25.40;;;12.65;;
81176;SDS011;74095;48.270;14.200;2024-01-10T05:09:18;25.73;;;11.60;;
81176;SDS011;74095;48.270;14.200;2024-01-10T05:11:44;27.10;;;13.35;;
81176;SDS011;74095;48.270;14.200;2024-01-10T05:14:13;22.10;;;10.65;;
81176;SDS011;74095;48.270;14.200;2024-01-10T05:16:39;25.85;;;12.40;;
81176;SDS011;74095;48.270;14.200;2024-01-10T05:19:05;26.13;;;13.13;;
81176;SDS011;74095;48.270;14.200;2024-01-10T05:21:32;30.33;;;12.93;;
81176;SDS011;74095;48.270;14.200;2024-01-10T05:23:58;23.80;;;11.48;;
81176;SDS011;74095;48.270;14.200;2024-01-10T05:26:24;24.10;;;12.23;;
81176;SDS011;74095;48.270;14.200;2024-01-10T05:28:50;25.58;;;11.32;;
81176;SDS011;74095;48.270;14.200;2024-01-10T05:31:16;21.23;;;10.38;;
81176;SDS011;74095;48.270;14.200;2024-01-10T05:33:42;26.83;;;11.52;;
81176;SDS011;74095;48.270;14.200;2024-01-10T05:36:08;13.27;;;6.60;;
81176;SDS011;74095;48.270;14.200;2024-01-10T05:38:38;23.40;;;12.48;;
81176;SDS011;74095;48.270;14.200;2024-01-10T05:41:05;30.27;;;13.20;;
81176;SDS011;74095;48.270;14.200;2024-01-10T05:43:31;28.35;;;13.60;;
81176;SDS011;74095;48.270;14.200;2024-01-10T05:45:57;27.63;;;11.93;;
81176;SDS011;74095;48.270;14.200;2024-01-10T05:48:24;26.23;;;11.50;;
81176;SDS011;74095;48.270;14.200;2024-01-10T05:50:50;25.73;;;12.18;;
81176;SDS011;74095;48.270;14.200;2024-01-10T05:53:16;26.90;;;12.00;;
81176;SDS011;74095;48.270;14.200;2024-01-10T05:55:43;32.20;;;15.63;;
81176;SDS011;74095;48.270;14.200;2024-01-10T05:58:10;27.50;;;12.57;;
81176;SDS011;74095;48.270;14.200;2024-01-10T06:00:36;19.48;;;9.63;;
81176;SDS011;74095;48.270;14.200;2024-01-10T06:03:02;25.15;;;11.65;;
81176;SDS011;74095;48.270;14.200;2024-01-10T06:05:28;28.85;;;13.82;;
81176;SDS011;74095;48.270;14.200;2024-01-10T06:07:54;22.35;;;10.13;;
81176;SDS011;74095;48.270;14.200;2024-01-10T06:10:20;31.42;;;13.00;;
81176;SDS011;74095;48.270;14.200;2024-01-10T06:12:46;30.35;;;15.48;;
81176;SDS011;74095;48.270;14.200;2024-01-10T06:15:12;22.55;;;11.30;;
81176;SDS011;74095;48.270;14.200;2024-01-10T06:17:38;25.45;;;11.52;;
81176;SDS011;74095;48.270;14.200;2024-01-10T06:20:04;17.45;;;8.27;;
81176;SDS011;74095;48.270;14.200;2024-01-10T06:22:32;30.80;;;13.45;;
81176;SDS011;74095;48.270;14.200;2024-01-10T06:24:58;21.15;;;9.98;;
81176;SDS011;74095;48.270;14.200;2024-01-10T06:27:25;27.60;;;12.20;;
81176;SDS011;74095;48.270;14.200;2024-01-10T06:29:51;23.80;;;10.70;;
81176;SDS011;74095;48.270;14.200;2024-01-10T06:32:16;22.35;;;11.25;;
81176;SDS011;74095;48.270;14.200;2024-01-10T06:34:42;24.15;;;10.00;;
81176;SDS011;74095;48.270;14.200;2024-01-10T06:37:08;32.75;;;13.90;;
81176;SDS011;74095;48.270;14.200;2024-01-10T06:39:34;30.67;;;12.77;;
81176;SDS011;74095;48.270;14.200;2024-01-10T06:42:01;37.88;;;18.75;;
81176;SDS011;74095;48.270;14.200;2024-01-10T06:44:29;28.90;;;12.30;;
81176;SDS011;74095;48.270;14.200;2024-01-10T06:46:55;33.72;;;15.38;;
81176;SDS011;74095;48.270;14.200;2024-01-10T06:49:21;29.67;;;12.45;;
81176;SDS011;74095;48.270;14.200;2024-01-10T06:51:47;34.03;;;15.77;;
81176;SDS011;74095;48.270;14.200;2024-01-10T06:54:13;25.75;;;10.55;;
81176;SDS011;74095;48.270;14.200;2024-01-10T06:56:40;31.70;;;13.88;;
81176;SDS011;74095;48.270;14.200;2024-01-10T06:59:06;31.33;;;14.07;;
81176;SDS011;74095;48.270;14.200;2024-01-10T07:01:32;26.92;;;12.48;;
81176;SDS011;74095;48.270;14.200;2024-01-10T07:03:58;30.23;;;13.05;;
81176;SDS011;74095;48.270;14.200;2024-01-10T07:06:24;29.17;;;13.52;;
81176;SDS011;74095;48.270;14.200;2024-01-10T07:08:50;32.90;;;13.90;;
81176;SDS011;74095;48.270;14.200;2024-01-10T07:11:17;35.83;;;15.13;;
81176;SDS011;74095;48.270;14.200;2024-01-10T07:13:43;27.77;;;13.13;;
81176;SDS011;74095;48.270;14.200;2024-01-10T07:16:09;39.70;;;16.40;;
81176;SDS011;74095;48.270;14.200;2024-01-10T07:18:35;38.53;;;22.20;;
81176;SDS011;74095;48.270;14.200;2024-01-10T07:21:01;31.92;;;16.00;;
81176;SDS011;74095;48.270;14.200;2024-01-10T07:23:27;31.02;;;12.93;;
81176;SDS011;74095;48.270;14.200;2024-01-10T07:25:53;31.85;;;12.45;;
81176;SDS011;74095;48.270;14.200;2024-01-10T07:28:19;25.75;;;11.90;;
81176;SDS011;74095;48.270;14.200;2024-01-10T07:30:46;37.50;;;17.83;;
81176;SDS011;74095;48.270;14.200;2024-01-10T07:33:12;26.90;;;12.77;;
81176;SDS011;74095;48.270;14.200;2024-01-10T07:35:38;31.52;;;16.33;;
81176;SDS011;74095;48.270;14.200;2024-01-10T07:38:04;36.97;;;20.92;;
81176;SDS011;74095;48.270;14.200;2024-01-10T07:40:34;38.67;;;21.48;;
81176;SDS011;74095;48.270;14.200;2024-01-10T07:43:00;29.88;;;14.23;;
81176;SDS011;74095;48.270;14.200;2024-01-10T07:45:26;33.47;;;12.50;;
81176;SDS011;74095;48.270;14.200;2024-01-10T07:47:52;32.05;;;15.85;;
81176;SDS011;74095;48.270;14.200;2024-01-10T07:50:19;35.15;;;14.38;;
81176;SDS011;74095;48.270;14.200;2024-01-10T07:52:45;31.38;;;14.98;;
81176;SDS011;74095;48.270;14.200;2024-01-10T07:55:13;34.47;;;17.83;;
81176;SDS011;74095;48.270;14.200;2024-01-10T07:57:39;33.50;;;17.90;;
81176;SDS011;74095;48.270;14.200;2024-01-10T08:00:08;35.35;;;13.25;;
81176;SDS011;74095;48.270;14.200;2024-01-10T08:02:39;32.15;;;13.73;;
81176;SDS011;74095;48.270;14.200;2024-01-10T08:05:06;37.67;;;20.42;;
81176;SDS011;74095;48.270;14.200;2024-01-10T08:07:36;30.33;;;14.77;;
81176;SDS011;74095;48.270;14.200;2024-01-10T08:10:05;31.27;;;15.80;;
81176;SDS011;74095;48.270;14.200;2024-01-10T08:12:32;35.65;;;15.48;;
81176;SDS011;74095;48.270;14.200;2024-01-10T08:14:58;29.83;;;16.58;;
81176;SDS011;74095;48.270;14.200;2024-01-10T08:17:24;33.15;;;15.50;;
81176;SDS011;74095;48.270;14.200;2024-01-10T08:19:50;35.47;;;19.40;;
81176;SDS011;74095;48.270;14.200;2024-01-10T08:22:17;40.92;;;16.80;;
81176;SDS011;74095;48.270;14.200;2024-01-10T08:24:45;28.23;;;13.43;;
81176;SDS011;74095;48.270;14.200;2024-01-10T08:27:11;25.60;;;11.95;;
81176;SDS011;74095;48.270;14.200;2024-01-10T08:29:38;34.70;;;15.88;;
81176;SDS011;74095;48.270;14.200;2024-01-10T08:32:04;38.17;;;22.17;;
81176;SDS011;74095;48.270;14.200;2024-01-10T08:34:30;33.95;;;19.55;;
81176;SDS011;74095;48.270;14.200;2024-01-10T08:36:56;37.63;;;20.17;;
81176;SDS011;74095;48.270;14.200;2024-01-10T08:39:22;23.85;;;12.20;;
81176;SDS011;74095;48.270;14.200;2024-01-10T08:41:50;40.47;;;20.38;;
81176;SDS011;74095;48.270;14.200;2024-01-10T08:44:16;39.17;;;17.40;;
81176;SDS011;74095;48.270;14.200;2024-01-10T08:46:42;30.40;;;12.95;;
81176;SDS011;74095;48.270;14.200;2024-01-10T08:49:07;27.20;;;12.77;;
81176;SDS011;74095;48.270;14.200;2024-01-10T08:51:33;34.17;;;16.48;;
81176;SDS011;74095;48.270;14.200;2024-01-10T08:53:59;29.40;;;16.27;;
81176;SDS011;74095;48.270;14.200;2024-01-10T08:56:25;33.53;;;14.95;;
81176;SDS011;74095;48.270;14.200;2024-01-10T08:58:52;35.38;;;18.73;;
81176;SDS011;74095;48.270;14.200;2024-01-10T09:01:18;31.05;;;14.30;;
81176;SDS011;74095;48.270;14.200;2024-01-10T09:03:45;34.40;;;15.90;;
81176;SDS011;74095;48.270;14.200;2024-01-10T09:06:11;32.03;;;16.05;;
81176;SDS011;74095;48.270;14.200;2024-01-10T09:08:38;36.20;;;20.15;;
81176;SDS011;74095;48.270;14.200;2024-01-10T09:11:05;38.13;;;16.58;;
81176;SDS011;74095;48.270;14.200;2024-01-10T09:13:31;31.80;;;15.95;;
81176;SDS011;74095;48.270;14.200;2024-01-10T09:15:57;35.92;;;19.67;;
81176;SDS011;74095;48.270;14.200;2024-01-10T09:18:23;35.05;;;15.15;;
81176;SDS011;74095;48.270;14.200;2024-01-10T09:20:49;32.97;;;15.20;;
81176;SDS011;74095;48.270;14.200;2024-01-10T09:23:15;31.85;;;16.02;;
81176;SDS011;74095;48.270;14.200;2024-01-10T09:25:41;38.05;;;17.60;;
81176;SDS011;74095;48.270;14.200;2024-01-10T09:28:07;28.75;;;13.93;;
81176;SDS011;74095;48.270;14.200;2024-01-10T09:30:33;36.03;;;15.05;;
81176;SDS011;74095;48.270;14.200;2024-01-10T09:32:59;34.35;;;15.27;;
81176;SDS011;74095;48.270;14.200;2024-01-10T09:35:26;39.22;;;17.67;;
81176;SDS011;74095;48.270;14.200;2024-01-10T09:37:52;39.15;;;16.02;;
81176;SDS011;74095;48.270;14.200;2024-01-10T09:40:19;35.65;;;16.60;;
81176;SDS011;74095;48.270;14.200;2024-01-10T09:42:48;33.13;;;17.75;;
81176;SDS011;74095;48.270;14.200;2024-01-10T09:45:16;36.53;;;18.55;;
81176;SDS011;74095;48.270;14.200;2024-01-10T09:47:46;38.65;;;19.20;;
81176;SDS011;74095;48.270;14.200;2024-01-10T09:50:14;42.90;;;18.63;;
81176;SDS011;74095;48.270;14.200;2024-01-10T09:52:42;36.13;;;20.15;;
81176;SDS011;74095;48.270;14.200;2024-01-10T09:55:20;43.08;;;18.13;;
81176;SDS011;74095;48.270;14.200;2024-01-10T09:57:47;27.45;;;13.60;;
81176;SDS011;74095;48.270;14.200;2024-01-10T10:00:14;37.53;;;16.35;;
81176;SDS011;74095;48.270;14.200;2024-01-10T10:02:41;40.63;;;18.95;;
81176;SDS011;74095;48.270;14.200;2024-01-10T10:05:08;38.25;;;18.15;;
81176;SDS011;74095;48.270;14.200;2024-01-10T10:07:46;31.55;;;14.23;;
81176;SDS011;74095;48.270;14.200;2024-01-10T10:10:12;39.08;;;17.63;;
81176;SDS011;74095;48.270;14.200;2024-01-10T10:12:41;41.05;;;19.05;;
81176;SDS011;74095;48.270;14.200;2024-01-10T10:15:18;34.85;;;17.30;;
81176;SDS011;74095;48.270;14.200;2024-01-10T10:17:48;40.20;;;20.17;;
81176;SDS011;74095;48.270;14.200;2024-01-10T10:20:25;35.67;;;17.23;;
81176;SDS011;74095;48.270;14.200;2024-01-10T10:25:42;34.42;;;15.88;;
81176;SDS011;74095;48.270;14.200;2024-01-10T10:28:09;35.70;;;16.98;;
81176;SDS011;74095;48.270;14.200;2024-01-10T10:30:35;28.33;;;13.85;;
81176;SDS011;74095;48.270;14.200;2024-01-10T10:33:01;29.88;;;14.73;;
81176;SDS011;74095;48.270;14.200;2024-01-10T10:35:28;34.22;;;16.65;;
81176;SDS011;74095;48.270;14.200;2024-01-10T10:37:54;37.00;;;18.60;;
81176;SDS011;74095;48.270;14.200;2024-01-10T10:40:21;35.95;;;18.33;;
81176;SDS011;74095;48.270;14.200;2024-01-10T10:42:56;30.67;;;14.15;;
81176;SDS011;74095;48.270;14.200;2024-01-10T10:45:22;34.92;;;15.95;;
81176;SDS011;74095;48.270;14.200;2024-01-10T10:47:59;31.35;;;16.15;;
81176;SDS011;74095;48.270;14.200;2024-01-10T10:50:28;36.50;;;19.10;;
81176;SDS011;74095;48.270;14.200;2024-01-10T10:53:02;38.28;;;20.52;;
81176;SDS011;74095;48.270;14.200;2024-01-10T10:55:29;43.67;;;18.92;;
81176;SDS011;74095;48.270;14.200;2024-01-10T10:57:55;34.10;;;16.50;;
81176;SDS011;74095;48.270;14.200;2024-01-10T11:00:21;31.90;;;16.38;;
81176;SDS011;74095;48.270;14.200;2024-01-10T11:02:55;30.23;;;15.73;;
81176;SDS011;74095;48.270;14.200;2024-01-10T11:05:23;34.92;;;16.45;;
81176;SDS011;74095;48.270;14.200;2024-01-10T11:07:49;27.73;;;13.00;;
81176;SDS011;74095;48.270;14.200;2024-01-10T11:13:00;25.38;;;12.15;;
81176;SDS011;74095;48.270;14.200;2024-01-10T11:21:50;35.65;;;17.30;;
81176;SDS011;74095;48.270;14.200;2024-01-10T11:24:38;34.63;;;19.05;;
81176;SDS011;74095;48.270;14.200;2024-01-10T11:27:11;32.85;;;15.43;;
81176;SDS011;74095;48.270;14.200;2024-01-10T11:29:38;32.58;;;15.30;;
81176;SDS011;74095;48.270;14.200;2024-01-10T11:32:07;31.80;;;15.38;;
81176;SDS011;74095;48.270;14.200;2024-01-10T11:34:48;34.60;;;17.10;;
81176;SDS011;74095;48.270;14.200;2024-01-10T11:37:15;45.58;;;20.67;;
81176;SDS011;74095;48.270;14.200;2024-01-10T11:39:42;21.52;;;11.90;;
81176;SDS011;74095;48.270;14.200;2024-01-10T11:42:09;33.63;;;16.45;;
81176;SDS011;74095;48.270;14.200;2024-01-10T11:44:46;24.73;;;13.43;;
81176;SDS011;74095;48.270;14.200;2024-01-10T11:47:15;37.88;;;18.90;;
81176;SDS011;74095;48.270;14.200;2024-01-10T11:50:06;28.40;;;14.77;;
81176;SDS011;74095;48.270;14.200;2024-01-10T11:55:02;33.47;;;16.70;;
81176;SDS011;74095;48.270;14.200;2024-01-10T11:57:30;27.08;;;13.10;;
81176;SDS011;74095;48.270;14.200;2024-01-10T11:59:57;38.38;;;19.02;;
81176;SDS011;74095;48.270;14.200;2024-01-10T12:02:26;32.88;;;16.00;;
81176;SDS011;74095;48.270;14.200;2024-01-10T12:04:52;35.80;;;18.80;;
81176;SDS011;74095;48.270;14.200;2024-01-10T12:07:19;34.25;;;16.42;;
81176;SDS011;74095;48.270;14.200;2024-01-10T12:09:46;34.50;;;16.42;;
81176;SDS011;74095;48.270;14.200;2024-01-10T12:12:12;37.20;;;15.98;;
81176;SDS011;74095;48.270;14.200;2024-01-10T12:14:39;35.55;;;16.48;;
81176;SDS011;74095;48.270;14.200;2024-01-10T12:17:06;35.00;;;17.90;;
81176;SDS011;74095;48.270;14.200;2024-01-10T12:19:35;30.77;;;14.73;;
81176;SDS011;74095;48.270;14.200;2024-01-10T12:22:05;39.42;;;16.98;;
81176;SDS011;74095;48.270;14.200;2024-01-10T12:24:31;33.90;;;15.50;;
81176;SDS011;74095;48.270;14.200;2024-01-10T12:26:58;34.13;;;16.55;;
81176;SDS011;74095;48.270;14.200;2024-01-10T12:29:24;34.45;;;16.98;;
81176;SDS011;74095;48.270;14.200;2024-01-10T12:31:51;37.55;;;16.73;;
81176;SDS011;74095;48.270;14.200;2024-01-10T12:34:19;34.30;;;17.40;;
81176;SDS011;74095;48.270;14.200;2024-01-10T12:36:46;35.28;;;16.23;;
81176;SDS011;74095;48.270;14.200;2024-01-10T12:39:13;34.90;;;14.50;;
81176;SDS011;74095;48.270;14.200;2024-01-10T12:41:40;33.53;;;15.27;;
81176;SDS011;74095;48.270;14.200;2024-01-10T12:44:06;31.38;;;13.45;;
81176;SDS011;74095;48.270;14.200;2024-01-10T12:46:32;32.17;;;15.18;;
81176;SDS011;74095;48.270;14.200;2024-01-10T12:49:00;35.40;;;15.27;;
81176;SDS011;74095;48.270;14.200;2024-01-10T12:51:33;34.00;;;16.30;;
81176;SDS011;74095;48.270;14.200;2024-01-10T12:54:02;36.28;;;18.23;;
81176;SDS011;74095;48.270;14.200;2024-01-10T12:56:30;34.13;;;15.50;;
81176;SDS011;74095;48.270;14.200;2024-01-10T12:58:56;31.08;;;16.05;;
81176;SDS011;74095;48.270;14.200;2024-01-10T13:01:23;21.85;;;11.35;;
81176;SDS011;74095;48.270;14.200;2024-01-10T13:03:50;31.17;;;15.82;;
81176;SDS011;74095;48.270;14.200;2024-01-10T13:06:16;36.22;;;15.77;;
81176;SDS011;74095;48.270;14.200;2024-01-10T13:08:44;35.92;;;16.05;;
81176;SDS011;74095;48.270;14.200;2024-01-10T13:11:11;37.17;;;18.60;;
81176;SDS011;74095;48.270;14.200;2024-01-10T13:13:39;38.63;;;19.23;;
81176;SDS011;74095;48.270;14.200;2024-01-10T13:16:06;37.42;;;18.65;;
81176;SDS011;74095;48.270;14.200;2024-01-10T13:18:32;33.90;;;18.35;;
81176;SDS011;74095;48.270;14.200;2024-01-10T13:20:59;34.70;;;16.40;;
81176;SDS011;74095;48.270;14.200;2024-01-10T13:23:25;36.30;;;17.63;;
81176;SDS011;74095;48.270;14.200;2024-01-10T13:25:51;36.75;;;17.02;;
81176;SDS011;74095;48.270;14.200;2024-01-10T13:28:20;38.15;;;17.65;;
81176;SDS011;74095;48.270;14.200;2024-01-10T13:30:46;38.38;;;16.75;;
81176;SDS011;74095;48.270;14.200;2024-01-10T13:33:12;36.25;;;17.80;;
81176;SDS011;74095;48.270;14.200;2024-01-10T13:35:39;33.83;;;18.10;;
81176;SDS011;74095;48.270;14.200;2024-01-10T13:38:05;35.90;;;16.23;;
81176;SDS011;74095;48.270;14.200;2024-01-10T13:40:31;28.77;;;13.05;;
81176;SDS011;74095;48.270;14.200;2024-01-10T13:42:59;32.13;;;15.13;;
81176;SDS011;74095;48.270;14.200;2024-01-10T13:45:28;30.23;;;13.88;;
81176;SDS011;74095;48.270;14.200;2024-01-10T13:47:55;34.05;;;18.65;;
81176;SDS011;74095;48.270;14.200;2024-01-10T13:50:21;30.02;;;14.25;;
81176;SDS011;74095;48.270;14.200;2024-01-10T13:52:47;28.30;;;14.15;;
81176;SDS011;74095;48.270;14.200;2024-01-10T13:55:13;31.48;;;14.85;;
81176;SDS011;74095;48.270;14.200;2024-01-10T13:57:39;29.20;;;13.48;;
81176;SDS011;74095;48.270;14.200;2024-01-10T14:00:05;33.10;;;20.00;;
81176;SDS011;74095;48.270;14.200;2024-01-10T14:02:43;23.42;;;12.20;;
81176;SDS011;74095;48.270;14.200;2024-01-10T14:05:08;30.92;;;14.88;;
81176;SDS011;74095;48.270;14.200;2024-01-10T14:07:35;32.10;;;15.93;;
81176;SDS011;74095;48.270;14.200;2024-01-10T14:10:02;29.60;;;16.13;;
81176;SDS011;74095;48.270;14.200;2024-01-10T14:12:28;30.75;;;14.98;;
81176;SDS011;74095;48.270;14.200;2024-01-10T14:14:56;32.03;;;15.20;;
81176;SDS011;74095;48.270;14.200;2024-01-10T14:17:23;31.40;;;16.30;;
81176;SDS011;74095;48.270;14.200;2024-01-10T14:19:52;29.52;;;15.05;;
81176;SDS011;74095;48.270;14.200;2024-01-10T14:22:18;28.17;;;13.95;;
81176;SDS011;74095;48.270;14.200;2024-01-10T14:24:45;32.10;;;14.23;;